Time;durP1;ratioP1;P1;durP2;ratioP2;P2;SDS_P1;SDS_P2;PMS_P1;PMS_P2;Temp;Humidity;BMP_temperature;BMP_pressure;BME280_temperature;BME280_humidity;BME280_pressure;Samples;Min_cycle;Max_cycle;Signal;HPM_P1;HPM_P2
2023/01/16 00:00:30;;;;;;;4.80;3.25;;;;;;;-14.75;78.83;100488.03;4933787;28;20055;-59
2023/01/16 00:03:00;;;;;;;3.38;3.08;;;;;;;-14.75;78.50;100488.03;4933124;28;20090;-58
2023/01/16 00:05:31;;;;;;;3.58;3.25;;;;;;;-14.67;78.30;100482.06;4925586;28;20382;-58
2023/01/16 00:08:01;;;;;;;4.55;3.33;;;;;;;-14.66;77.74;100479.66;4914532;28;20388;-58
2023/01/16 00:10:33;;;;;;;3.65;3.25;;;;;;;-14.69;77.62;100478.53;4914856;28;20045;-58
2023/01/16 00:13:04;;;;;;;4.45;3.20;;;;;;;-14.68;77.49;100465.22;4908072;28;20209;-58
2023/01/16 00:15:35;;;;;;;3.60;3.28;;;;;;;-14.67;77.22;100465.38;4912458;28;20075;-60
2023/01/16 00:18:05;;;;;;;3.53;3.20;;;;;;;-14.58;76.96;100467.78;4912523;28;20056;-59
2023/01/16 00:20:36;;;;;;;3.28;2.97;;;;;;;-14.51;76.46;100480.06;4912590;28;20049;-59
2023/01/16 00:23:06;;;;;;;3.35;3.05;;;;;;;-14.47;76.08;100477.09;4912207;28;20052;-59
2023/01/16 00:25:43;;;;;;;3.58;3.28;;;;;;;-14.46;75.77;100478.84;4912013;28;20633;-60
2023/01/16 00:28:14;;;;;;;3.60;2.97;;;;;;;-14.36;75.11;100480.50;4908301;28;20054;-60
2023/01/16 00:30:46;;;;;;;3.95;2.90;;;;;;;-14.36;74.54;100493.94;4911929;28;20106;-59
2023/01/16 00:33:18;;;;;;;2.70;2.50;;;;;;;-14.44;74.29;100482.38;4912280;28;20143;-59
2023/01/16 00:35:49;;;;;;;3.13;2.92;;;;;;;-14.43;74.09;100484.09;4912039;28;20151;-59
2023/01/16 00:38:19;;;;;;;5.45;3.20;;;;;;;-14.40;74.00;100489.41;4912046;28;20074;-59
2023/01/16 00:40:52;;;;;;;3.50;3.20;;;;;;;-14.38;73.89;100487.88;4912036;28;20474;-59
2023/01/16 00:43:23;;;;;;;3.30;2.97;;;;;;;-14.26;73.87;100492.22;4912225;28;20106;-59
2023/01/16 00:45:53;;;;;;;5.20;3.28;;;;;;;-14.18;73.65;100486.19;4906234;28;20060;-59
2023/01/16 00:48:24;;;;;;;4.20;3.33;;;;;;;-14.15;72.99;100482.34;4934674;28;20059;-59
2023/01/16 00:50:55;;;;;;;4.95;2.70;;;;;;;-13.99;72.40;100499.56;4933459;28;20067;-58
2023/01/16 00:53:25;;;;;;;3.28;3.00;;;;;;;-14.21;72.61;100455.81;4933354;28;20048;-59
2023/01/16 00:55:57;;;;;;;6.32;3.63;;;;;;;-14.04;72.08;100455.63;4933635;28;20048;-59
2023/01/16 00:58:28;;;;;;;3.50;3.20;;;;;;;-13.77;71.08;100492.19;4933124;28;20758;-59
2023/01/16 01:00:58;;;;;;;3.83;3.20;;;;;;;-13.69;70.52;100486.16;4932988;28;20055;-59
2023/01/16 01:03:29;;;;;;;6.50;2.70;;;;;;;-13.85;70.11;100477.22;4932219;28;20052;-59
2023/01/16 01:06:00;;;;;;;5.18;3.13;;;;;;;-13.70;69.71;100483.56;4932610;28;20122;-59
2023/01/16 01:08:30;;;;;;;6.82;3.78;;;;;;;-13.72;69.86;100485.06;4928530;28;20076;-59
2023/01/16 01:11:08;;;;;;;6.70;3.00;;;;;;;-13.69;69.31;100487.81;4930523;28;20067;-59
2023/01/16 01:13:38;;;;;;;3.35;3.05;;;;;;;-13.70;69.11;100488.56;4922758;28;20378;-59
2023/01/16 01:16:10;;;;;;;3.05;2.85;;;;;;;-13.63;68.70;100480.75;4933142;28;20448;-60
2023/01/16 01:18:42;;;;;;;3.70;3.25;;;;;;;-13.73;68.08;100488.28;4932435;28;20663;-60
2023/01/16 01:21:13;;;;;;;3.13;2.83;;;;;;;-13.74;68.66;100486.56;4930863;28;20044;-59
2023/01/16 01:23:43;;;;;;;4.97;3.47;;;;;;;-13.64;67.87;100468.97;4938688;28;20048;-60
2023/01/16 01:26:20;;;;;;;3.28;2.97;;;;;;;-13.53;67.54;100458.16;4935905;28;20045;-60
2023/01/16 01:28:51;;;;;;;4.53;2.95;;;;;;;-13.50;66.55;100467.59;4932468;28;20056;-59
2023/01/16 01:31:21;;;;;;;3.00;2.75;;;;;;;-13.47;65.77;100462.81;4933597;28;20052;-58
2023/01/16 01:33:52;;;;;;;4.78;2.65;;;;;;;-13.50;65.45;100458.41;4933228;28;20052;-58
2023/01/16 01:36:22;;;;;;;3.75;2.63;;;;;;;-13.67;65.37;100458.66;4932008;28;20236;-60
2023/01/16 01:38:53;;;;;;;2.88;2.60;;;;;;;-13.68;65.72;100436.78;4939230;28;20498;-60
2023/01/16 01:41:25;;;;;;;7.10;3.53;;;;;;;-13.54;65.29;100451.38;4919532;28;20112;-59
2023/01/16 01:43:57;;;;;;;3.65;2.88;;;;;;;-13.50;64.68;100452.53;4912908;28;20076;-59
2023/01/16 01:46:32;;;;;;;5.47;2.90;;;;;;;-13.53;64.74;100452.25;4916130;28;20068;-59
2023/01/16 01:49:09;;;;;;;2.97;2.47;;;;;;;-13.48;64.49;100451.88;4932251;28;20090;-59
2023/01/16 01:51:42;;;;;;;3.67;3.00;;;;;;;-13.52;64.32;100444.84;4920994;28;20141;-59
2023/01/16 01:54:17;;;;;;;3.03;2.83;;;;;;;-13.42;64.03;100445.59;4930761;28;20079;-60
2023/01/16 01:56:52;;;;;;;4.28;3.22;;;;;;;-13.30;64.17;100451.63;4931577;28;20056;-58
2023/01/16 01:59:26;;;;;;;3.55;2.85;;;;;;;-13.35;64.22;100432.75;4929623;28;20434;-60
2023/01/16 02:01:58;;;;;;;3.30;2.92;;;;;;;-13.29;63.57;100459.28;4932601;28;20044;-59
2023/01/16 02:04:32;;;;;;;3.05;2.72;;;;;;;-13.34;62.75;100432.00;4930890;28;20155;-59
2023/01/16 02:07:06;;;;;;;2.70;2.50;;;;;;;-13.41;62.01;100448.22;4931747;28;20053;-61
2023/01/16 02:09:38;;;;;;;3.05;2.75;;;;;;;-13.33;62.51;100457.25;4932120;28;20179;-60
2023/01/16 02:12:12;;;;;;;3.22;2.78;;;;;;;-13.41;62.57;100452.38;4931828;28;20083;-61
2023/01/16 02:14:45;;;;;;;2.85;2.65;;;;;;;-13.47;63.03;100451.13;4931308;28;20138;-61
2023/01/16 02:20:20;;;;;;;4.50;3.28;;;;;;;-13.40;63.85;100439.03;4921150;28;20047;-59
2023/01/16 02:23:21;;;;;;;4.05;3.10;;;;;;;-13.38;64.10;100438.41;4921908;28;20058;-60
2023/01/16 02:26:39;;;;;;;3.35;2.97;;;;;;;-13.22;64.32;100430.44;4931167;28;20474;-59
2023/01/16 02:29:45;;;;;;;2.75;2.55;;;;;;;-13.20;64.18;100423.91;4915779;28;20075;-60
2023/01/16 02:32:34;;;;;;;2.65;2.47;;;;;;;-13.88;63.37;100286.09;4920575;28;20101;-60
2023/01/16 02:35:29;;;;;;;2.70;2.50;;;;;;;-13.20;62.86;100417.97;4921233;28;20075;-60
2023/01/16 02:38:06;;;;;;;3.25;2.58;;;;;;;-13.27;62.17;100429.25;4921762;28;20052;-59
2023/01/16 02:40:45;;;;;;;3.80;3.22;;;;;;;-13.24;61.80;100426.94;4905988;28;20094;-60
2023/01/16 02:43:27;;;;;;;3.20;2.90;;;;;;;-13.12;61.41;100422.88;4902800;28;20481;-60
2023/01/16 02:46:08;;;;;;;2.58;2.38;;;;;;;-13.06;61.34;100418.31;4901888;28;20052;-59
2023/01/16 02:48:48;;;;;;;3.00;2.70;;;;;;;-12.99;61.22;100408.75;4915427;28;20047;-59
2023/01/16 02:51:30;;;;;;;6.43;2.92;;;;;;;-12.97;60.87;100404.75;4921735;28;20051;-60
2023/01/16 02:54:10;;;;;;;2.70;2.50;;;;;;;-12.80;61.03;100396.88;4921217;28;20565;-59
2023/01/16 02:56:45;;;;;;;;;;;;;;;-12.72;60.29;100400.84;4921936;28;20484;-59
2023/01/16 02:59:17;;;;;;;2.90;2.60;;;;;;;-12.66;59.98;100401.31;4921927;28;20010;-60
2023/01/16 03:01:48;;;;;;;2.97;2.78;;;;;;;-12.80;59.16;100391.84;4922898;28;20044;-57
2023/01/16 03:04:49;;;;;;;2.97;2.70;;;;;;;-12.71;59.11;100401.72;4930396;28;20154;-58
2023/01/16 03:07:35;;;;;;;2.50;2.30;;;;;;;-12.67;59.69;100402.09;4922508;28;20048;-58
2023/01/16 03:10:30;;;;;;;2.80;2.60;;;;;;;-12.61;59.96;100395.00;4918431;28;20059;-59
2023/01/16 03:13:16;;;;;;;3.00;2.70;;;;;;;-12.46;59.85;100395.31;4899521;28;20056;-58
2023/01/16 03:15:54;;;;;;;7.00;3.10;;;;;;;-12.50;59.58;100367.25;4916376;28;20044;-58
2023/01/16 03:18:46;;;;;;;4.28;2.55;;;;;;;-12.45;58.64;100386.13;4910911;28;20045;-59
2023/01/16 03:23:56;;;;;;;4.25;2.88;;;;;;;-12.39;59.27;100368.97;4884837;28;20056;-60
2023/01/16 03:26:31;;;;;;;2.95;2.45;;;;;;;-12.50;58.69;100377.31;4859403;28;20064;-59
2023/01/16 03:29:09;;;;;;;3.00;2.45;;;;;;;-12.55;59.06;100378.63;4863219;28;20050;-59
2023/01/16 03:31:47;;;;;;;2.65;2.45;;;;;;;-12.49;59.77;100376.59;4858114;28;20054;-59
2023/01/16 03:34:24;;;;;;;2.58;2.33;;;;;;;-12.62;59.95;100353.00;4860614;28;20111;-60
2023/01/16 03:36:58;;;;;;;2.78;2.47;;;;;;;-12.55;60.09;100353.44;4861175;28;20121;-60
2023/01/16 03:39:34;;;;;;;4.07;2.92;;;;;;;-12.36;60.78;100376.75;4866893;28;20087;-59
2023/01/16 03:42:09;;;;;;;4.57;2.70;;;;;;;-12.36;60.48;100371.72;4859501;28;20088;-60
2023/01/16 03:44:43;;;;;;;3.50;2.70;;;;;;;-12.32;60.50;100371.19;4868808;28;20084;-60
2023/01/16 03:47:21;;;;;;;3.80;2.67;;;;;;;-12.39;60.93;100371.50;4863926;28;20182;-61
2023/01/16 03:49:57;;;;;;;7.72;3.00;;;;;;;-12.45;61.35;100328.25;4867338;28;20591;-60
2023/01/16 03:52:35;;;;;;;2.53;2.33;;;;;;;-12.12;60.73;100361.75;4859042;28;20049;-60
2023/01/16 03:55:19;;;;;;;2.67;2.47;;;;;;;-12.16;59.83;100355.59;4858792;28;20132;-60
2023/01/16 03:57:54;;;;;;;4.93;2.78;;;;;;;-12.18;59.82;100358.00;4858339;28;20049;-60
2023/01/16 04:00:27;;;;;;;3.15;2.40;;;;;;;-12.05;59.84;100358.94;4857637;28;20040;-59
2023/01/16 04:03:06;;;;;;;3.95;2.60;;;;;;;-12.00;59.83;100362.66;4867569;28;20943;-60
2023/01/16 04:05:42;;;;;;;3.05;2.70;;;;;;;-12.02;59.52;100356.63;4856762;28;20051;-60
2023/01/16 04:08:19;;;;;;;4.45;2.42;;;;;;;-12.03;59.47;100348.19;4864525;28;20767;-59
2023/01/16 04:10:52;;;;;;;3.60;2.33;;;;;;;-12.04;59.42;100348.06;4867310;28;20042;-59
2023/01/16 04:13:27;;;;;;;4.95;2.80;;;;;;;-12.14;60.00;100343.13;4865717;28;20042;-60
2023/01/16 04:16:01;;;;;;;6.65;2.85;;;;;;;-12.32;59.40;100333.44;4866504;28;20053;-60
2023/01/16 04:18:36;;;;;;;4.25;2.40;;;;;;;-12.35;58.91;100343.28;4874516;28;20045;-59
2023/01/16 04:21:08;;;;;;;3.13;2.42;;;;;;;-12.34;58.93;100345.00;4861815;28;20136;-60
2023/01/16 04:23:39;;;;;;;3.90;2.30;;;;;;;-12.36;58.42;100331.44;4866330;28;20349;-60
2023/01/16 04:26:11;;;;;;;2.50;2.30;;;;;;;-12.34;57.67;100345.00;4866906;28;20081;-59
2023/01/16 04:28:42;;;;;;;5.28;2.50;;;;;;;-12.39;57.85;100341.28;4867809;28;20108;-60
2023/01/16 04:31:12;;;;;;;5.53;2.67;;;;;;;-12.29;57.89;100343.72;4876353;28;22077;-60
2023/01/16 04:33:43;;;;;;;2.75;2.42;;;;;;;-12.21;57.80;100340.13;4862875;28;20053;-60
2023/01/16 04:36:14;;;;;;;4.03;2.63;;;;;;;-12.20;57.82;100334.34;4870688;28;20119;-60
2023/01/16 04:38:44;;;;;;;2.78;2.53;;;;;;;-12.23;57.17;100344.19;4870090;28;20440;-60
2023/01/16 04:41:35;;;;;;;3.75;2.55;;;;;;;-12.23;57.13;100344.19;4867956;28;20049;-60
2023/01/16 04:44:08;;;;;;;2.40;2.08;;;;;;;-12.19;56.85;100355.38;4857850;28;20049;-60
2023/01/16 04:46:39;;;;;;;4.93;2.53;;;;;;;-12.27;57.19;100347.25;4866465;28;20108;-59
2023/01/16 04:49:09;;;;;;;5.10;2.70;;;;;;;-12.24;57.00;100352.50;4866381;28;20055;-60
2023/01/16 04:51:41;;;;;;;4.70;2.53;;;;;;;-12.25;56.90;100358.31;4867590;28;20152;-59
2023/01/16 04:54:16;;;;;;;2.85;2.22;;;;;;;-12.40;56.59;100359.69;4867591;28;20053;-59
2023/01/16 04:56:48;;;;;;;8.38;4.60;;;;;;;-12.53;56.82;100337.69;4857781;28;20049;-59
2023/01/16 04:59:19;;;;;;;14.68;5.78;;;;;;;-12.68;56.68;100322.34;4866967;28;20131;-58
2023/01/16 05:01:50;;;;;;;7.43;4.13;;;;;;;-12.46;57.26;100370.13;4865785;28;20061;-59
2023/01/16 05:04:21;;;;;;;9.93;5.30;;;;;;;-12.48;57.25;100361.63;4866411;28;20077;-59
2023/01/16 05:06:51;;;;;;;8.48;3.95;;;;;;;-12.48;57.28;100365.75;4866140;28;20472;-59
2023/01/16 05:09:22;;;;;;;10.82;5.43;;;;;;;-12.48;57.05;100375.81;4866583;28;20050;-59
2023/01/16 05:11:54;;;;;;;6.55;2.65;;;;;;;-12.57;57.11;100376.00;4867318;28;21012;-60
2023/01/16 05:14:24;;;;;;;4.35;2.60;;;;;;;-12.79;57.50;100370.94;4858653;28;20046;-59
2023/01/16 05:16:55;;;;;;;4.28;2.40;;;;;;;-13.05;58.33;100364.78;4867593;28;20053;-59
2023/01/16 05:19:26;;;;;;;4.40;2.90;;;;;;;-13.04;58.58;100386.63;4867275;28;20049;-59
2023/01/16 05:21:57;;;;;;;3.28;2.85;;;;;;;-13.00;58.85;100386.88;4866904;28;20111;-59
2023/01/16 05:24:28;;;;;;;2.95;2.33;;;;;;;-12.96;59.11;100381.34;4866096;28;20488;-59
2023/01/16 05:27:00;;;;;;;3.92;2.60;;;;;;;-12.97;59.11;100387.13;4865076;28;20050;-59
2023/01/16 05:29:30;;;;;;;2.97;2.35;;;;;;;-13.14;59.00;100363.16;4866015;28;20049;-59
2023/01/16 05:32:01;;;;;;;2.42;2.25;;;;;;;-12.95;59.44;100390.63;4866534;28;20763;-59
2023/01/16 05:34:31;;;;;;;5.82;2.90;;;;;;;-13.08;59.71;100387.16;4866083;28;20467;-60
2023/01/16 05:37:02;;;;;;;4.20;3.10;;;;;;;-13.13;60.20;100393.44;4867591;28;20068;-59
2023/01/16 05:39:32;;;;;;;6.88;2.90;;;;;;;-13.20;60.20;100388.72;4867502;28;20739;-59
2023/01/16 05:42:20;;;;;;;2.97;2.40;;;;;;;-13.23;60.20;100397.63;4864667;28;20181;-58
2023/01/16 05:44:51;;;;;;;2.45;2.22;;;;;;;-13.28;60.49;100404.84;4857388;28;20050;-59
2023/01/16 05:47:22;;;;;;;2.50;2.30;;;;;;;-13.35;60.67;100403.47;4865605;28;20515;-59
2023/01/16 05:49:52;;;;;;;3.45;2.70;;;;;;;-13.49;61.09;100399.84;4867319;28;20061;-59
2023/01/16 05:52:23;;;;;;;3.03;2.30;;;;;;;-13.41;61.01;100423.09;4865086;28;20061;-59
2023/01/16 05:54:54;;;;;;;2.95;2.47;;;;;;;-13.59;61.10;100404.88;4872451;28;20135;-59
2023/01/16 05:57:26;;;;;;;2.78;2.58;;;;;;;-13.47;61.35;100413.41;4868179;28;20040;-59
2023/01/16 05:59:57;;;;;;;5.25;2.55;;;;;;;-13.44;61.34;100422.84;4867435;28;20056;-60
2023/01/16 06:02:27;;;;;;;3.08;2.28;;;;;;;-13.47;61.67;100423.47;4868047;28;20188;-60
2023/01/16 06:04:58;;;;;;;2.60;2.30;;;;;;;-13.57;61.67;100420.97;4866274;28;20068;-59
2023/01/16 06:07:28;;;;;;;3.47;2.65;;;;;;;-13.69;61.99;100425.88;4866121;28;20058;-60
2023/01/16 06:09:59;;;;;;;6.22;3.65;;;;;;;-13.68;61.91;100431.75;4865911;28;20495;-59
2023/01/16 06:12:33;;;;;;;55.72;16.25;;;;;;;-13.72;62.26;100439.81;4866590;28;20401;-59
2023/01/16 06:15:04;;;;;;;61.80;18.05;;;;;;;-13.80;62.32;100426.63;4860881;28;20104;-60
2023/01/16 06:17:34;;;;;;;47.72;13.60;;;;;;;-13.89;62.61;100425.00;4868083;28;20076;-60
2023/01/16 06:20:05;;;;;;;57.15;15.77;;;;;;;-13.87;62.61;100438.56;4867383;28;20049;-60
2023/01/16 06:22:36;;;;;;;94.82;21.38;;;;;;;-14.20;62.51;100402.34;4866615;28;20068;-60
2023/01/16 06:25:07;;;;;;;163.35;34.85;;;;;;;-14.06;62.84;100442.03;4867838;28;20046;-59
2023/01/16 06:27:39;;;;;;;172.15;38.72;;;;;;;-14.12;63.10;100441.53;4866468;28;20539;-60
2023/01/16 06:30:11;;;;;;;140.15;33.42;;;;;;;-14.13;63.30;100440.63;4866204;28;20057;-60
2023/01/16 06:32:42;;;;;;;114.40;30.38;;;;;;;-14.16;63.20;100444.53;4866098;28;20060;-59
2023/01/16 06:35:12;;;;;;;90.00;24.23;;;;;;;-14.32;63.31;100431.44;4865358;28;20798;-59
2023/01/16 06:37:43;;;;;;;43.35;12.07;;;;;;;-14.44;63.28;100439.69;4864000;28;20062;-60
2023/01/16 06:40:14;;;;;;;59.65;16.67;;;;;;;-14.58;63.58;100445.19;4871029;28;20125;-59
2023/01/16 06:42:46;;;;;;;60.05;15.65;;;;;;;-14.69;63.76;100445.94;4869384;28;20087;-60
2023/01/16 06:45:16;;;;;;;80.50;19.98;;;;;;;-14.67;63.68;100449.44;4865968;28;20057;-62
2023/01/16 06:47:52;;;;;;;126.65;30.50;;;;;;;-14.81;63.90;100444.09;4865636;28;20057;-60
2023/01/16 06:50:23;;;;;;;95.70;25.17;;;;;;;-14.86;63.89;100450.34;4864574;28;20115;-60
2023/01/16 06:52:53;;;;;;;96.45;27.88;;;;;;;-15.16;64.02;100433.53;4871645;28;20061;-60
2023/01/16 06:55:24;;;;;;;66.72;20.65;;;;;;;-15.00;64.17;100475.84;4869846;28;20054;-59
2023/01/16 06:57:56;;;;;;;26.17;9.15;;;;;;;-15.02;64.22;100474.84;4867400;28;20103;-60
2023/01/16 07:00:27;;;;;;;32.72;12.27;;;;;;;-15.06;64.58;100475.31;4866303;28;20089;-59
2023/01/16 07:02:58;;;;;;;27.75;10.00;;;;;;;-15.15;64.31;100479.50;4866130;28;20802;-60
2023/01/16 07:05:30;;;;;;;8.00;5.15;;;;;;;-15.38;64.39;100474.97;4865686;28;20050;-59
2023/01/16 07:08:01;;;;;;;8.40;4.93;;;;;;;-15.34;64.47;100492.94;4866144;28;20577;-60
2023/01/16 07:10:31;;;;;;;9.43;4.72;;;;;;;-15.35;64.79;100495.28;4866790;28;20049;-60
2023/01/16 07:13:03;;;;;;;6.72;3.78;;;;;;;-15.43;64.60;100492.09;4865702;28;20832;-59
2023/01/16 07:24:05;;;;;;;45.63;23.48;;;;;;;-16.74;64.49;100461.78;4855478;28;20302;-58
2023/01/16 07:26:39;;;;;;;17.67;11.20;;;;;;;-17.05;65.55;100508.88;4856338;28;20050;-59
2023/01/16 07:29:11;;;;;;;18.98;9.35;;;;;;;-17.14;66.69;100528.00;4863727;28;20046;-59
2023/01/16 07:31:42;;;;;;;7.68;5.38;;;;;;;-17.30;66.83;100530.63;4864003;28;20049;-58
2023/01/16 07:34:13;;;;;;;7.97;5.30;;;;;;;-17.40;67.27;100533.84;4862046;28;20100;-59
2023/01/16 07:36:43;;;;;;;11.10;5.90;;;;;;;-17.48;67.34;100539.72;4870102;28;20054;-58
2023/01/16 07:39:14;;;;;;;5.07;4.32;;;;;;;-17.64;67.39;100536.47;4868768;28;20132;-57
2023/01/16 07:41:45;;;;;;;9.80;4.18;;;;;;;-17.90;67.39;100542.25;4865179;28;20058;-58
2023/01/16 07:44:28;;;;;;;5.65;4.47;;;;;;;-18.33;67.72;100532.97;4855642;28;20399;-58
2023/01/16 07:46:58;;;;;;;14.00;6.70;;;;;;;-18.45;68.06;100551.66;4865196;28;20484;-57
2023/01/16 07:49:28;;;;;;;82.28;22.52;;;;;;;-18.58;68.95;100558.63;4865325;28;20077;-56
2023/01/16 07:51:59;;;;;;;31.73;11.40;;;;;;;-18.75;69.53;100565.25;4865551;28;20060;-58
2023/01/16 07:54:29;;;;;;;32.33;11.45;;;;;;;-18.74;70.14;100572.00;4868785;28;20063;-58
2023/01/16 07:57:00;;;;;;;36.10;11.88;;;;;;;-18.64;70.50;100577.94;4868463;28;20064;-57
2023/01/16 07:59:32;;;;;;;39.88;13.82;;;;;;;-18.60;70.56;100585.88;4868630;28;20049;-57
2023/01/16 08:02:13;;;;;;;55.95;18.05;;;;;;;-18.59;70.47;100591.75;4868140;28;20053;-59
2023/01/16 08:04:49;;;;;;;67.10;21.38;;;;;;;-18.77;69.88;100581.69;4867792;28;20529;-58
2023/01/16 08:07:19;;;;;;;49.58;17.60;;;;;;;-18.73;70.25;100597.81;4867961;28;20077;-58
2023/01/16 08:09:50;;;;;;;39.97;14.80;;;;;;;-18.67;71.67;100597.56;4866902;28;20049;-58
2023/01/16 08:12:20;;;;;;;52.30;16.60;;;;;;;-18.74;72.02;100596.94;4867182;28;20049;-58
2023/01/16 08:14:52;;;;;;;56.05;19.15;;;;;;;-18.88;72.26;100599.63;4868505;28;20053;-59
2023/01/16 08:17:23;;;;;;;39.03;15.40;;;;;;;-18.89;72.40;100604.44;4866746;28;20483;-59
2023/01/16 08:19:53;;;;;;;41.17;16.42;;;;;;;-18.98;72.55;100607.75;4874135;28;20096;-58
2023/01/16 08:22:24;;;;;;;29.17;11.55;;;;;;;-19.16;72.30;100608.31;4871790;28;20822;-56
2023/01/16 08:25:01;;;;;;;31.85;12.30;;;;;;;-19.21;72.25;100617.78;4869752;28;20045;-57
2023/01/16 08:27:32;;;;;;;27.90;11.32;;;;;;;-19.46;72.39;100591.03;4867525;28;20053;-57
2023/01/16 08:30:05;;;;;;;14.10;7.78;;;;;;;-19.29;72.23;100621.06;4867006;28;20058;-58
2023/01/16 08:32:35;;;;;;;9.00;5.55;;;;;;;-19.38;71.95;100635.03;4868455;28;20108;-58
2023/01/16 08:35:07;;;;;;;5.68;4.65;;;;;;;-19.58;71.56;100616.34;4868737;28;20053;-58
2023/01/16 08:37:43;;;;;;;7.47;5.18;;;;;;;-19.86;71.19;100612.53;4869010;28;20050;-58
2023/01/16 08:40:21;;;;;;;21.88;8.40;;;;;;;-19.86;71.06;100641.50;4857751;28;20068;-58
2023/01/16 08:51:40;;;;;;;16.25;7.18;;;;;;;-20.32;72.49;100661.31;4855908;28;20361;-57
2023/01/16 08:54:11;;;;;;;29.08;8.27;;;;;;;-20.28;72.56;100665.94;4852095;28;20049;-56
2023/01/16 08:56:44;;;;;;;66.40;15.57;;;;;;;-20.19;72.88;100669.41;4867804;28;20061;-57
2023/01/16 08:59:15;;;;;;;130.82;27.90;;;;;;;-20.12;73.10;100669.38;4869642;28;20136;-58
2023/01/16 09:01:48;;;;;;;160.30;33.58;;;;;;;-20.77;72.70;100558.66;4867695;28;20053;-57
2023/01/16 09:04:19;;;;;;;66.47;15.68;;;;;;;-19.98;72.74;100684.94;4866688;28;20053;-57
2023/01/16 09:06:53;;;;;;;26.70;9.30;;;;;;;-19.94;72.72;100679.56;4865810;28;20060;-57
2023/01/16 09:09:25;;;;;;;10.82;5.75;;;;;;;-20.27;72.74;100630.41;4860140;28;20111;-57
2023/01/16 09:14:46;;;;;;;43.85;12.55;;;;;;;-19.76;72.57;100694.03;4857965;28;20057;-57
2023/01/16 09:17:19;;;;;;;88.68;33.67;;;;;;;-19.96;72.18;100668.56;4867490;28;20353;-57
2023/01/16 09:19:51;;;;;;;63.53;31.48;;;;;;;-19.81;71.89;100705.09;4866632;28;20446;-56
2023/01/16 09:22:23;;;;;;;27.77;16.42;;;;;;;-19.88;71.51;100707.63;4866990;28;20060;-56
2023/01/16 09:24:54;;;;;;;14.10;10.18;;;;;;;-19.89;71.23;100715.78;4860575;28;20598;-57
2023/01/16 09:27:26;;;;;;;8.05;6.28;;;;;;;-20.16;70.35;100709.56;4867296;28;20745;-57
2023/01/16 09:29:58;;;;;;;408.83;80.88;;;;;;;-20.51;69.82;100718.94;4866516;28;20567;-57
2023/01/16 09:32:33;;;;;;;285.65;58.13;;;;;;;-20.67;69.93;100728.75;4865849;28;20123;-56
2023/01/16 09:35:05;;;;;;;368.92;70.97;;;;;;;-20.91;69.94;100709.50;4860523;28;20161;-57
2023/01/16 09:37:37;;;;;;;211.57;46.17;;;;;;;-21.04;70.00;100715.38;4866550;28;20128;-56
2023/01/16 09:40:14;;;;;;;280.95;69.88;;;;;;;-21.44;70.25;100686.88;4866237;28;20050;-56
2023/01/16 09:45:48;;;;;;;232.10;80.80;;;;;;;-21.41;70.50;100746.81;4847050;28;20525;-56
2023/01/16 09:48:27;;;;;;;57.40;27.13;;;;;;;-21.47;70.73;100733.69;4866844;28;20085;-56
2023/01/16 09:51:03;;;;;;;66.40;20.45;;;;;;;-21.56;70.92;100740.97;4857921;28;20453;-55
2023/01/16 09:59:29;;;;;;;157.45;39.58;;;;;;;-21.89;71.34;100727.97;4856932;28;20084;-56
2023/01/16 10:02:09;;;;;;;191.15;47.53;;;;;;;-22.13;71.56;100725.09;4857694;28;20385;-54
2023/01/16 10:04:44;;;;;;;124.22;33.47;;;;;;;-22.64;71.79;100613.50;4857181;28;20069;-55
2023/01/16 10:07:45;;;;;;;273.98;67.05;;;;;;;-21.72;71.74;100746.41;4857095;28;20044;-55
2023/01/16 10:10:38;;;;;;;147.27;38.05;;;;;;;-21.68;71.56;100753.53;4847107;28;20383;-56
2023/01/16 10:13:27;;;;;;;53.80;19.75;;;;;;;-21.67;71.20;100765.22;4855273;28;20473;-56
2023/01/16 10:16:12;;;;;;;43.22;15.02;;;;;;;-21.64;71.10;100760.59;4855920;28;20066;-55
2023/01/16 10:18:52;;;;;;;29.02;11.00;;;;;;;-21.75;70.89;100760.94;4855302;28;20055;-54
2023/01/16 10:21:40;;;;;;;7.95;7.07;;;;;;;-22.15;70.54;100711.63;4865045;28;20077;-54
2023/01/16 10:24:21;;;;;;;7.13;6.53;;;;;;;-21.94;71.20;100748.84;4856760;28;20152;-56
2023/01/16 10:27:00;;;;;;;6.68;5.97;;;;;;;-21.83;70.79;100768.38;4856713;28;20073;-55
2023/01/16 10:29:36;;;;;;;6.93;5.57;;;;;;;-22.07;70.98;100744.03;4856936;28;20506;-56
2023/01/16 10:32:14;;;;;;;5.85;5.28;;;;;;;-21.92;70.77;100777.19;4856178;28;20139;-55
2023/01/16 10:34:54;;;;;;;6.40;5.80;;;;;;;-22.06;71.10;100760.69;4857310;28;21149;-56
2023/01/16 10:37:28;;;;;;;6.07;5.47;;;;;;;-21.95;71.29;100779.31;4857875;28;20884;-56
2023/01/16 10:40:02;;;;;;;29.10;12.77;;;;;;;-22.05;71.66;100773.97;4865683;28;20458;-55
2023/01/16 10:51:08;;;;;;;107.43;35.33;;;;;;;-22.00;72.09;100763.88;4855538;28;20069;-55
2023/01/16 10:53:42;;;;;;;67.88;25.05;;;;;;;-21.98;71.86;100776.47;4866547;28;20062;-56
2023/01/16 10:56:13;;;;;;;13.52;7.90;;;;;;;-22.28;71.47;100772.16;4865367;28;20460;-56
2023/01/16 10:58:45;;;;;;;10.15;8.48;;;;;;;-22.31;71.74;100774.28;4869250;28;20122;-55
2023/01/16 11:01:18;;;;;;;7.45;6.82;;;;;;;-22.38;72.10;100786.63;4851855;28;20679;-56
2023/01/16 11:03:52;;;;;;;10.55;9.20;;;;;;;-22.45;72.30;100789.06;4865940;28;20144;-56
2023/01/16 11:06:26;;;;;;;28.02;15.73;;;;;;;-22.78;72.53;100732.28;4864389;28;20058;-56
2023/01/16 11:09:04;;;;;;;11.45;9.35;;;;;;;-22.46;72.52;100789.75;4866949;28;20152;-56
2023/01/16 11:20:20;;;;;;;6.68;5.10;;;;;;;-22.78;73.09;100831.31;4845736;28;20077;-56
2023/01/16 11:22:59;;;;;;;5.32;4.85;;;;;;;-22.90;73.62;100780.31;4866153;28;20059;-56
2023/01/16 11:25:33;;;;;;;5.18;4.88;;;;;;;-22.80;73.80;100789.75;4857350;28;20048;-56
2023/01/16 11:28:09;;;;;;;5.53;5.13;;;;;;;-22.81;73.68;100801.19;4863894;28;20623;-55
2023/01/16 11:30:44;;;;;;;5.82;5.43;;;;;;;-23.20;73.95;100737.88;4869465;28;20049;-56
2023/01/16 11:33:19;;;;;;;5.30;4.90;;;;;;;-22.86;74.08;100814.59;4859975;28;20380;-56
2023/01/16 11:35:56;;;;;;;6.25;5.75;;;;;;;-22.85;74.12;100799.06;4870226;28;20103;-56
2023/01/16 11:38:29;;;;;;;5.45;4.53;;;;;;;-22.82;74.12;100809.34;4860730;28;20049;-55
2023/01/16 11:41:07;;;;;;;5.13;4.80;;;;;;;-23.00;73.91;100782.38;4869122;28;20480;-56
2023/01/16 11:46:38;;;;;;;5.07;4.78;;;;;;;-23.12;74.11;100802.44;4860003;28;20460;-56
2023/01/16 11:49:18;;;;;;;4.90;4.60;;;;;;;-23.12;73.96;100797.50;4860098;28;20057;-55
2023/01/16 11:51:54;;;;;;;5.10;4.80;;;;;;;-23.13;73.95;100805.63;4859759;28;20796;-56
2023/01/16 11:54:29;;;;;;;9.30;6.35;;;;;;;-23.11;73.83;100809.19;4859603;28;20053;-55
2023/01/16 11:57:31;;;;;;;6.38;5.80;;;;;;;-23.11;74.08;100824.03;4869819;28;20104;-56
2023/01/16 12:00:32;;;;;;;6.28;5.78;;;;;;;-23.10;73.93;100824.91;4864594;28;20042;-56
2023/01/16 12:03:27;;;;;;;5.35;5.00;;;;;;;-23.18;73.54;100821.50;4868496;28;20064;-55
2023/01/16 12:06:07;;;;;;;5.00;4.70;;;;;;;-23.40;73.65;100807.16;4858239;28;20120;-55
2023/01/16 12:09:03;;;;;;;6.35;5.85;;;;;;;-23.27;74.32;100825.28;4857851;28;20573;-54
2023/01/16 12:11:55;;;;;;;7.32;6.25;;;;;;;-23.33;74.44;100804.75;4842688;28;20767;-55
2023/01/16 12:14:33;;;;;;;5.10;4.80;;;;;;;-23.20;74.86;100813.00;4859087;28;20054;-55
2023/01/16 12:17:15;;;;;;;6.63;6.22;;;;;;;-23.22;74.66;100793.69;4860051;28;20045;-54
2023/01/16 12:20:10;;;;;;;5.47;5.07;;;;;;;-23.10;74.68;100820.84;4859453;28;20081;-56
2023/01/16 12:22:59;;;;;;;4.80;4.50;;;;;;;-23.06;74.57;100822.09;4859855;28;20119;-55
2023/01/16 12:25:41;;;;;;;6.38;5.28;;;;;;;-22.94;74.65;100822.69;4858186;28;20110;-55
2023/01/16 12:28:27;;;;;;;5.43;4.95;;;;;;;-23.00;74.50;100802.19;4859342;28;20043;-56
2023/01/16 12:31:34;;;;;;;7.70;6.18;;;;;;;-22.82;74.31;100836.56;4859441;28;20111;-55
2023/01/16 12:34:28;;;;;;;87.55;20.48;;;;;;;-23.29;74.07;100747.53;4858924;28;20486;-56
2023/01/16 12:37:14;;;;;;;53.97;18.23;;;;;;;-23.04;74.31;100745.59;4858119;28;20111;-56
2023/01/16 12:39:54;;;;;;;36.00;15.10;;;;;;;-22.69;73.17;100811.72;4859491;28;21508;-57
2023/01/16 12:45:34;;;;;;;;;;;;;;;-22.90;73.91;100805.06;4851717;28;20068;-56